Thursday, March 21, 2019, 4:22 PM EDT
Back to Local

KSNC, Chester, Chester Airport

Location: Chester, CT, United States Lat: 41.384
Local Time: 4:22 PM EDT (20:22 GMT) Lon: -72.506
Time Zone: US/Eastern Elev: 416 ft

Show me the last for .
Show Coded

Time T Td Feel RH Dir Speed Gust Alt SLP Vis Weather Sky Remarks
2019-03-21 16:15 45 36 40 70 90° 8 - 30.00 - 10 OVC048 None
2019-03-21 15:55 45 36 40 70 80° 9 - 30.01 - 10 None
2019-03-21 15:35 45 36 38 70 Variable 7 13 30.03 - 10 OVC047 None
2019-03-21 15:15 45 36 38 70 110° 7 15 30.04 - 10 OVC046 None
2019-03-21 14:55 45 36 38 70 Variable 7 14 30.05 - 10 OVC045 None
2019-03-21 14:35 45 36 40 70 120° 9 - 30.06 - 10 OVC043 None
2019-03-21 14:15 45 36 37 70 130° 10 18 30.08 - 10 OVC041 None
2019-03-21 13:55 46 36 42 65 120° 8 - 30.07 - 10 OVC039 None
2019-03-21 13:35 46 36 42 65 130° 9 - 30.09 - 10 OVC038 None
2019-03-21 13:15 46 36 40 65 120° 8 14 30.09 - 10 OVC038 None
2019-03-21 12:55 45 36 37 70 140° 9 16 30.10 - 10 OVC039 None
2019-03-21 12:35 45 36 40 70 130° 8 - 30.12 - 10 OVC038 None
2019-03-21 12:15 45 36 38 70 120° 9 15 30.13 - 10 FEW018 OVC038 None
2019-03-21 11:55 45 36 40 70 120° 9 - 30.13 - 10 OVC038 None
2019-03-21 11:35 45 36 41 70 Variable 7 - 30.14 - 10 OVC039 None
2019-03-21 11:15 45 36 40 70 130° 9 - 30.15 - 10 OVC039 None
2019-03-21 10:55 45 36 39 70 100° 10 - 30.15 - 10 OVC037 None
2019-03-21 10:35 45 34 38 65 120° 13 - 30.16 - 10 OVC037 None
2019-03-21 10:15 45 36 39 70 130° 10 - 30.17 - 10 OVC037 None
2019-03-21 09:55 45 34 40 65 110° 8 - 30.16 - 10 OVC036 None
2019-03-21 09:35 45 34 41 65 120° 7 - 30.16 - 10 OVC036 None
2019-03-21 09:15 43 34 38 70 120° 8 - 30.17 - 10 OVC036 None
2019-03-21 08:55 43 34 39 70 110° 7 - 30.18 - 10 OVC037 None
2019-03-21 08:35 41 34 36 75 110° 8 - 30.18 - 10 OVC036 None
2019-03-21 08:15 41 34 37 75 Variable 6 - 30.18 - 10 OVC037 None
2019-03-21 07:55 41 34 37 75 110° 6 - 30.18 - 10 OVC037 None
2019-03-21 07:35 41 34 37 75 110° 6 - 30.19 - 10 -UP OVC037 None
2019-03-21 07:15 39 34 35 80 110° 6 - 30.19 - 10 OVC038 None
2019-03-21 06:55 39 32 36 75 100° 5 - 30.20 - 10 OVC038 None
2019-03-21 06:35 39 32 35 75 Variable 6 - 30.20 - 10 OVC040 None
2019-03-21 06:15 39 32 36 75 130° 5 - 30.20 - 10 OVC042 None
2019-03-21 05:55 39 32 37 75 120° 3 - 30.21 - 10 OVC043 None
2019-03-21 05:35 37 32 34 80 130° 5 - 30.21 - 10 BKN042 OVC060 None
2019-03-21 05:15 37 32 35 80 130° 3 - 30.21 - 10 FEW045 BKN050 OVC060 None
2019-03-21 04:55 37 32 - 80 - Calm - 30.22 - 10 OVC050 None
2019-03-21 04:35 37 32 - 80 - Calm - 30.21 - 10 OVC048 None
2019-03-21 04:15 37 32 34 80 140° 5 - 30.22 - 10 OVC048 None
2019-03-21 03:55 37 32 35 80 Variable 3 - 30.22 - 10 SCT049 None
2019-03-21 03:35 37 34 - 86 - Calm - 30.23 - 10 FEW046 None
2019-03-21 03:15 36 34 - 93 - Calm - 30.24 - 10 FEW046 BKN120 None
2019-03-21 02:55 37 34 - 86 - Calm - 30.25 - 10 FEW049 BKN120 None
2019-03-21 02:35 37 34 - 86 - Calm - 30.26 - 10 FEW110 None
2019-03-21 02:15 37 34 - 86 - Calm - 30.26 - 10 CLR None
2019-03-21 01:55 37 34 - 86 - Calm - 30.27 - 10 FEW110 None
2019-03-21 01:35 37 34 - 86 - Calm - 30.28 - 10 FEW110 None
2019-03-21 01:15 37 34 - 86 - Calm - 30.28 - 10 CLR None
2019-03-21 00:55 37 32 - 80 - Calm - 30.28 - 10 CLR None
2019-03-21 00:35 37 32 - 80 - Calm - 30.28 - 10 CLR None
2019-03-21 00:15 36 32 - 86 - Calm - 30.29 - 10 CLR None
2019-03-20 23:55 37 32 - 80 - Calm - 30.29 - 10 None
2019-03-20 23:35 37 30 - 74 - Calm - 30.30 - 10 None
2019-03-20 23:15 37 32 34 80 160° 5 - 30.30 - 10 CLR None
2019-03-20 22:55 37 32 34 80 160° 5 - 30.31 - 10 CLR None
2019-03-20 22:35 37 32 34 80 160° 5 - 30.31 - 10 None
2019-03-20 22:15 37 30 34 74 170° 5 - 30.31 - 10 None
2019-03-20 21:55 39 30 - 69 - Calm - 30.32 - 10 None
2019-03-20 21:35 39 28 34 64 180° 7 - 30.32 - 10 None
2019-03-20 21:15 39 30 34 69 190° 7 - 30.32 - 10 CLR None
2019-03-20 20:55 39 30 35 69 180° 6 - 30.32 - 10 CLR None
2019-03-20 20:35 39 30 35 69 170° 6 - 30.32 - 10 CLR None
2019-03-20 20:15 39 30 34 69 180° 7 - 30.31 - 10 CLR None
2019-03-20 19:55 41 28 36 60 180° 7 - 30.31 - 10 CLR None
2019-03-20 19:35 41 27 36 56 190° 7 - 30.31 - 10 CLR None
2019-03-20 19:15 43 23 39 45 200° 7 - 30.31 - 10 CLR None
2019-03-20 18:55 43 21 36 41 200° 7 13 30.31 - 10 CLR None
2019-03-20 18:35 43 21 37 41 200° 9 - 30.31 - 10 CLR None
2019-03-20 18:15 45 19 37 36 200° 12 18 30.30 - 10 CLR None
2019-03-20 17:55 46 18 39 31 190° 12 17 30.30 - 10 CLR None
2019-03-20 17:35 46 18 38 31 200° 13 24 30.30 - 10 CLR None
2019-03-20 17:15 48 18 41 29 200° 15 21 30.30 - 10 CLR None
2019-03-20 16:55 48 16 41 26 210° 10 20 30.30 - 10 CLR None
2019-03-20 16:35 50 18 44 27 220° 10 18 30.30 - 10 CLR None

Support USWX by starting your Amazon purchase here.